createdAt,value
2019-03-24T00:01:40.666Z,6.07
2019-03-24T00:04:06.433Z,6.08
2019-03-24T00:06:38.083Z,6.08
2019-03-24T00:09:09.507Z,5.96
2019-03-24T00:11:40.842Z,5.91
2019-03-24T00:14:12.299Z,5.76
2019-03-24T00:16:43.865Z,5.74
2019-03-24T00:19:15.791Z,5.59
2019-03-24T00:21:47.393Z,5.67
2019-03-24T00:24:19.335Z,5.66
2019-03-24T00:26:50.675Z,5.52
2019-03-24T00:29:22.123Z,5.46
2019-03-24T00:31:53.681Z,5.34
2019-03-24T00:34:25.343Z,5.30
2019-03-24T00:36:56.675Z,5.23
2019-03-24T00:39:28.331Z,5.16
2019-03-24T00:41:59.743Z,5.12
2019-03-24T00:44:31.317Z,5.12
2019-03-24T00:47:02.660Z,5.17
2019-03-24T00:49:34.078Z,5.09
2019-03-24T00:52:05.801Z,5.07
2019-03-24T00:54:37.397Z,5.03
2019-03-24T00:57:08.963Z,4.94
2019-03-24T00:59:40.327Z,4.84
2019-03-24T01:02:12.152Z,4.79
2019-03-24T01:04:43.691Z,4.81
2019-03-24T01:07:15.328Z,4.79
2019-03-24T01:09:46.778Z,4.78
2019-03-24T01:12:18.161Z,4.73
2019-03-24T01:14:49.780Z,4.70
2019-03-24T01:17:22.384Z,4.70
2019-03-24T01:19:53.807Z,4.55
2019-03-24T01:22:26.493Z,4.51
2019-03-24T01:24:57.913Z,4.43
2019-03-24T01:27:29.332Z,4.41
2019-03-24T01:30:01.033Z,4.51
2019-03-24T01:32:32.529Z,4.44
2019-03-24T01:35:04.763Z,4.37
2019-03-24T01:37:36.275Z,4.32
2019-03-24T01:40:07.742Z,4.26
2019-03-24T01:42:40.088Z,4.36
2019-03-24T01:45:12.769Z,4.44
2019-03-24T01:47:44.134Z,4.34
2019-03-24T01:50:15.519Z,4.24
2019-03-24T01:52:46.806Z,4.22
2019-03-24T01:55:18.105Z,4.16
2019-03-24T01:57:49.705Z,4.19
2019-03-24T02:00:21.009Z,4.24
2019-03-24T02:02:52.533Z,4.20
2019-03-24T02:05:24.152Z,4.09
2019-03-24T02:07:55.444Z,4.05
2019-03-24T02:10:26.836Z,4.11
2019-03-24T02:12:58.433Z,4.03
2019-03-24T02:15:30.096Z,4.04
2019-03-24T02:18:01.711Z,3.99
2019-03-24T02:20:33.518Z,3.96
2019-03-24T02:23:04.896Z,3.93
2019-03-24T02:25:36.775Z,3.99
2019-03-24T02:28:08.061Z,3.89
2019-03-24T02:30:39.958Z,3.88
2019-03-24T02:33:11.826Z,3.84
2019-03-24T02:35:43.446Z,3.82
2019-03-24T02:38:14.751Z,3.83
2019-03-24T02:40:46.530Z,3.82
2019-03-24T02:43:18.133Z,3.87
2019-03-24T02:45:50.530Z,3.81
2019-03-24T02:48:22.299Z,3.74
2019-03-24T02:50:53.881Z,3.72
2019-03-24T02:53:26.142Z,3.77
2019-03-24T02:55:57.984Z,3.74
2019-03-24T02:58:29.577Z,3.79
2019-03-24T03:01:01.532Z,3.83
2019-03-24T03:03:33.099Z,3.79
2019-03-24T03:06:04.901Z,3.70
2019-03-24T03:08:36.466Z,3.66
2019-03-24T03:11:08.437Z,3.71
2019-03-24T03:13:39.821Z,3.66
2019-03-24T03:16:11.203Z,3.64
2019-03-24T03:18:42.566Z,3.65
2019-03-24T03:21:14.460Z,3.58
2019-03-24T03:23:46.268Z,3.54
2019-03-24T03:26:18.741Z,3.57
2019-03-24T03:28:51.302Z,3.62
2019-03-24T03:31:22.640Z,3.62
2019-03-24T03:33:54.212Z,3.66
2019-03-24T03:36:26.571Z,3.63
2019-03-24T03:38:58.885Z,3.64
2019-03-24T03:41:30.937Z,3.69
2019-03-24T03:44:02.288Z,3.62
2019-03-24T03:46:33.872Z,3.59
2019-03-24T03:49:05.896Z,3.61
2019-03-24T03:51:38.322Z,3.60
2019-03-24T03:54:09.865Z,3.72
2019-03-24T03:56:42.286Z,3.67
2019-03-24T03:59:14.062Z,3.64
2019-03-24T04:01:45.376Z,3.63
2019-03-24T04:04:17.196Z,3.60
2019-03-24T04:06:48.749Z,3.55
2019-03-24T04:09:20.049Z,3.53
2019-03-24T04:11:51.361Z,3.59
2019-03-24T04:14:22.654Z,3.60
2019-03-24T04:17:06.085Z,3.58
2019-03-24T04:19:28.069Z,3.61
2019-03-24T04:21:59.373Z,3.57
2019-03-24T04:24:31.028Z,3.56
2019-03-24T04:27:02.356Z,3.54
2019-03-24T04:29:33.967Z,3.55
2019-03-24T04:32:05.289Z,3.53
2019-03-24T04:34:36.895Z,3.50
2019-03-24T04:37:08.626Z,3.52
2019-03-24T04:39:39.922Z,3.51
2019-03-24T04:42:11.260Z,3.46
2019-03-24T04:44:43.067Z,3.49
2019-03-24T04:47:16.845Z,3.49
2019-03-24T04:49:48.361Z,3.49
2019-03-24T04:52:19.673Z,3.45
2019-03-24T04:54:50.984Z,3.39
2019-03-24T04:57:22.868Z,3.45
2019-03-24T04:59:54.175Z,3.39
2019-03-24T05:02:25.811Z,3.46
2019-03-24T05:04:57.352Z,3.40
2019-03-24T05:07:28.967Z,3.39
2019-03-24T05:10:01.020Z,3.41
2019-03-24T05:12:33.316Z,3.42
2019-03-24T05:15:04.781Z,3.39
2019-03-24T05:17:36.257Z,3.38
2019-03-24T05:20:07.714Z,3.32
2019-03-24T05:22:40.229Z,3.39
2019-03-24T05:25:11.709Z,3.36
2019-03-24T05:27:44.346Z,3.37
2019-03-24T05:30:15.723Z,3.43
2019-03-24T05:32:47.257Z,3.49
2019-03-24T05:35:18.805Z,3.52
2019-03-24T05:37:50.345Z,3.56
2019-03-24T05:40:21.902Z,3.67
2019-03-24T05:42:53.226Z,3.82
2019-03-24T05:45:24.534Z,3.96
2019-03-24T05:47:56.076Z,4.07
2019-03-24T05:50:27.609Z,4.21
2019-03-24T05:52:58.934Z,4.27
2019-03-24T05:55:30.285Z,4.31
2019-03-24T05:58:02.809Z,4.29
2019-03-24T06:00:34.407Z,4.43
2019-03-24T06:03:06.091Z,4.48
2019-03-24T06:05:37.402Z,4.59
2019-03-24T06:08:08.714Z,4.56
2019-03-24T06:10:40.275Z,4.65
2019-03-24T06:13:11.935Z,4.66
2019-03-24T06:15:43.744Z,4.83
2019-03-24T06:18:15.275Z,4.84
2019-03-24T06:20:46.574Z,4.92
2019-03-24T06:23:17.884Z,5.15
2019-03-24T06:25:49.471Z,5.16
2019-03-24T06:28:21.271Z,5.31
2019-03-24T06:30:52.575Z,5.42
2019-03-24T06:33:24.208Z,5.55
2019-03-24T06:35:55.996Z,5.55
2019-03-24T06:38:27.292Z,5.62
2019-03-24T06:40:58.814Z,5.71
2019-03-24T06:43:30.516Z,5.89
2019-03-24T06:46:02.026Z,5.99
2019-03-24T06:48:33.634Z,6.05
2019-03-24T06:51:05.004Z,6.11
2019-03-24T06:53:37.278Z,6.18
2019-03-24T06:56:08.596Z,6.29
2019-03-24T06:58:40.453Z,6.45
2019-03-24T07:01:11.915Z,6.44
2019-03-24T07:03:43.315Z,6.48
2019-03-24T07:06:14.943Z,6.54
2019-03-24T07:08:46.497Z,6.64
2019-03-24T07:11:17.900Z,6.54
2019-03-24T07:13:49.688Z,6.65
2019-03-24T07:16:21.064Z,6.76
2019-03-24T07:18:52.358Z,6.82
2019-03-24T07:21:23.660Z,6.82
2019-03-24T07:23:55.021Z,7.05
2019-03-24T07:26:26.552Z,7.10
2019-03-24T07:28:57.955Z,7.25
2019-03-24T07:31:29.332Z,7.44
2019-03-24T07:34:00.802Z,7.39
2019-03-24T07:36:32.116Z,7.52
2019-03-24T07:39:05.152Z,7.69
2019-03-24T07:41:36.457Z,7.84
2019-03-24T07:44:07.824Z,7.86
2019-03-24T07:46:39.359Z,7.80
2019-03-24T07:49:10.873Z,7.94
2019-03-24T07:51:42.719Z,7.95
2019-03-24T07:54:15.072Z,8.26
2019-03-24T07:56:46.389Z,8.20
2019-03-24T07:59:19.033Z,8.34
2019-03-24T08:01:50.829Z,8.62
2019-03-24T08:04:22.125Z,8.69
2019-03-24T08:06:54.524Z,8.78
2019-03-24T08:09:25.811Z,8.68
2019-03-24T08:11:57.382Z,8.74
2019-03-24T08:14:29.629Z,8.75
2019-03-24T08:17:01.174Z,9.03
2019-03-24T08:19:32.717Z,9.01
2019-03-24T08:22:04.346Z,9.11
2019-03-24T08:24:35.714Z,9.25
2019-03-24T08:27:07.393Z,9.28
2019-03-24T08:29:38.947Z,9.56
2019-03-24T08:32:10.475Z,9.47
2019-03-24T08:34:41.765Z,9.67
2019-03-24T08:37:13.377Z,9.98
2019-03-24T08:39:44.594Z,9.99
2019-03-24T08:42:16.130Z,10.20
2019-03-24T08:44:47.496Z,10.27
2019-03-24T08:47:18.824Z,10.47
2019-03-24T08:49:50.433Z,10.46
2019-03-24T08:52:22.041Z,10.79
2019-03-24T08:54:53.560Z,10.92
2019-03-24T08:57:24.876Z,10.88
2019-03-24T08:59:56.441Z,10.96
2019-03-24T09:02:28.053Z,11.07
2019-03-24T09:04:59.650Z,11.18
2019-03-24T09:07:30.970Z,11.23
2019-03-24T09:10:02.544Z,11.40
2019-03-24T09:12:33.884Z,11.41
2019-03-24T09:15:05.899Z,11.50
2019-03-24T09:17:37.429Z,11.68
2019-03-24T09:20:09.408Z,11.83
2019-03-24T09:22:41.005Z,11.96
2019-03-24T09:25:13.031Z,12.10
2019-03-24T09:27:44.614Z,12.21
2019-03-24T09:30:29.194Z,12.09
2019-03-24T09:33:00.643Z,12.25
2019-03-24T09:35:32.145Z,12.17
2019-03-24T09:38:03.628Z,12.32
2019-03-24T09:40:35.218Z,12.57
2019-03-24T09:43:06.946Z,12.71
2019-03-24T09:45:38.550Z,12.81
2019-03-24T09:48:10.222Z,12.67
2019-03-24T09:50:41.758Z,12.76
2019-03-24T09:53:13.423Z,12.89
2019-03-24T09:55:44.720Z,12.91
2019-03-24T09:58:16.052Z,13.19
2019-03-24T10:00:48.108Z,13.20
2019-03-24T10:03:19.413Z,13.40
2019-03-24T10:05:50.798Z,13.09
2019-03-24T10:08:22.121Z,13.45
2019-03-24T10:10:53.584Z,13.70
2019-03-24T10:13:24.906Z,13.56
2019-03-24T10:15:56.625Z,13.85
2019-03-24T10:18:28.186Z,14.09
2019-03-24T10:20:59.787Z,14.16
2019-03-24T10:23:31.824Z,14.17
2019-03-24T10:26:03.468Z,14.17
2019-03-24T10:28:35.267Z,14.24
2019-03-24T10:31:06.918Z,13.97
2019-03-24T10:33:38.536Z,14.21
2019-03-24T10:36:09.844Z,14.46
2019-03-24T10:38:41.466Z,14.52
2019-03-24T10:41:12.999Z,14.31
2019-03-24T10:43:44.805Z,14.57
2019-03-24T10:46:16.390Z,14.60
2019-03-24T10:48:48.234Z,14.79
2019-03-24T10:51:19.961Z,14.92
2019-03-24T10:53:51.290Z,14.92
2019-03-24T10:56:22.921Z,14.85
2019-03-24T10:58:54.476Z,15.12
2019-03-24T11:01:26.039Z,15.24
2019-03-24T11:03:57.718Z,15.21
2019-03-24T11:06:29.262Z,15.06
2019-03-24T11:09:00.578Z,14.73
2019-03-24T11:11:31.966Z,14.95
2019-03-24T11:14:04.982Z,15.34
2019-03-24T11:16:36.365Z,15.24
2019-03-24T11:19:07.760Z,15.28
2019-03-24T11:21:57.390Z,15.45
2019-03-24T11:24:29.785Z,15.27
2019-03-24T11:27:02.362Z,15.35
2019-03-24T11:29:34.652Z,15.55
2019-03-24T11:32:06.023Z,15.74
2019-03-24T11:34:37.340Z,15.69
2019-03-24T11:37:08.744Z,15.63
2019-03-24T11:39:40.055Z,15.80
2019-03-24T11:42:11.358Z,15.59
2019-03-24T11:44:42.664Z,15.70
2019-03-24T11:47:13.978Z,16.12
2019-03-24T11:49:49.190Z,16.06
2019-03-24T11:52:20.546Z,15.94
2019-03-24T11:54:52.082Z,15.82
2019-03-24T11:57:24.354Z,15.79
2019-03-24T11:59:55.674Z,15.81
2019-03-24T12:02:27.221Z,15.95
2019-03-24T12:04:58.530Z,15.83
2019-03-24T12:07:30.697Z,15.96
2019-03-24T12:10:02.018Z,16.10
2019-03-24T12:12:33.340Z,16.30
2019-03-24T12:15:05.489Z,16.26
2019-03-24T12:17:37.412Z,16.39
2019-03-24T12:20:09.237Z,16.22
2019-03-24T12:22:40.874Z,16.69
2019-03-24T12:25:12.249Z,16.56
2019-03-24T12:27:43.873Z,16.85
2019-03-24T12:30:15.480Z,16.80
2019-03-24T12:32:47.021Z,16.72
2019-03-24T12:35:18.554Z,16.82
2019-03-24T12:37:50.275Z,16.79
2019-03-24T12:40:21.583Z,16.57
2019-03-24T12:42:52.985Z,16.89
2019-03-24T12:45:24.356Z,17.16
2019-03-24T12:47:56.652Z,17.34
2019-03-24T12:50:31.574Z,17.53
2019-03-24T12:53:02.173Z,17.77
2019-03-24T12:55:33.542Z,18.11
2019-03-24T12:58:05.238Z,17.96
2019-03-24T13:00:39.203Z,17.67
2019-03-24T13:03:10.661Z,17.37
2019-03-24T13:05:42.313Z,17.34
2019-03-24T13:08:18.070Z,17.20
2019-03-24T13:10:51.505Z,17.03
2019-03-24T13:13:22.924Z,16.84
2019-03-24T13:15:54.934Z,16.91
2019-03-24T13:18:26.553Z,16.83
2019-03-24T13:20:58.181Z,16.94
2019-03-24T13:23:30.021Z,16.68
2019-03-24T13:26:01.549Z,16.68
2019-03-24T13:28:33.121Z,16.74
2019-03-24T13:31:04.579Z,16.68
2019-03-24T13:33:35.905Z,16.42
2019-03-24T13:36:12.821Z,16.50
2019-03-24T13:38:44.201Z,16.39
2019-03-24T13:41:15.805Z,16.37
2019-03-24T13:43:47.424Z,16.18
2019-03-24T13:46:19.108Z,16.27
2019-03-24T13:48:50.641Z,16.38
2019-03-24T13:51:22.044Z,16.40
2019-03-24T13:53:53.964Z,16.32
2019-03-24T13:56:25.539Z,16.44
2019-03-24T13:58:58.626Z,16.66
2019-03-24T14:01:30.437Z,16.38
2019-03-24T14:04:01.901Z,15.78
2019-03-24T14:06:33.931Z,15.95
2019-03-24T14:09:09.577Z,15.96
2019-03-24T14:11:41.195Z,16.18
2019-03-24T14:14:12.518Z,16.01
2019-03-24T14:16:46.396Z,16.23
2019-03-24T14:19:17.536Z,16.08
2019-03-24T14:21:59.172Z,16.04
2019-03-24T14:24:36.137Z,16.21
2019-03-24T14:27:21.121Z,16.13
2019-03-24T14:30:02.812Z,15.79
2019-03-24T14:32:49.524Z,15.94
2019-03-24T14:35:24.657Z,15.67
2019-03-24T14:37:56.235Z,15.94
2019-03-24T14:40:27.765Z,15.71
2019-03-24T14:42:59.295Z,16.03
2019-03-24T14:45:30.845Z,15.94
2019-03-24T14:48:02.247Z,15.99
2019-03-24T14:50:34.598Z,16.06
2019-03-24T14:53:07.942Z,15.61
2019-03-24T14:55:39.559Z,15.58
2019-03-24T14:58:11.478Z,15.75
2019-03-24T15:00:43.694Z,15.81
2019-03-24T15:03:15.077Z,15.84
2019-03-24T15:05:46.917Z,15.67
2019-03-24T15:08:18.584Z,15.90
2019-03-24T15:10:50.081Z,15.93
2019-03-24T15:13:21.781Z,15.88
2019-03-24T15:15:53.764Z,15.60
2019-03-24T15:18:25.554Z,15.38
2019-03-24T15:21:05.737Z,15.22
2019-03-24T15:23:30.840Z,15.10
2019-03-24T15:26:02.703Z,15.01
2019-03-24T15:28:34.322Z,14.81
2019-03-24T15:31:05.649Z,14.53
2019-03-24T15:33:37.294Z,14.55
2019-03-24T15:36:20.350Z,14.71
2019-03-24T15:38:52.400Z,14.90
2019-03-24T15:41:23.718Z,15.03
2019-03-24T15:43:55.322Z,15.40
2019-03-24T15:46:28.182Z,15.19
2019-03-24T15:48:59.447Z,15.12
2019-03-24T15:51:31.081Z,15.00
2019-03-24T15:54:02.385Z,14.90
2019-03-24T15:56:33.920Z,14.81
2019-03-24T15:59:05.310Z,14.66
2019-03-24T16:01:39.773Z,14.48
2019-03-24T16:04:17.907Z,14.23
2019-03-24T16:06:55.164Z,14.12
2019-03-24T16:09:42.007Z,14.13
2019-03-24T16:12:25.215Z,14.10
2019-03-24T16:14:57.641Z,13.85
2019-03-24T16:17:29.247Z,13.85
2019-03-24T16:20:01.384Z,13.91
2019-03-24T16:22:32.970Z,13.80
2019-03-24T16:25:04.752Z,13.82
2019-03-24T16:27:36.451Z,13.78
2019-03-24T16:30:08.616Z,13.84
2019-03-24T16:32:40.699Z,13.63
2019-03-24T16:35:12.313Z,13.63
2019-03-24T16:37:43.713Z,13.55
2019-03-24T16:40:15.105Z,13.51
2019-03-24T16:42:46.774Z,13.48
2019-03-24T16:45:18.337Z,13.41
2019-03-24T16:47:50.183Z,13.35
2019-03-24T16:50:21.727Z,13.24
2019-03-24T16:52:53.067Z,13.17
2019-03-24T16:55:24.375Z,13.11
2019-03-24T16:57:55.707Z,13.06
2019-03-24T17:00:27.397Z,13.11
2019-03-24T17:02:58.807Z,12.86
2019-03-24T17:05:30.138Z,12.85
2019-03-24T17:08:01.691Z,12.74
2019-03-24T17:10:33.540Z,12.65
2019-03-24T17:13:05.381Z,12.61
2019-03-24T17:15:36.989Z,12.52
2019-03-24T17:21:11.301Z,12.49
2019-03-24T17:23:43.102Z,12.39
2019-03-24T17:26:14.657Z,12.36
2019-03-24T17:28:47.099Z,12.34
2019-03-24T17:31:19.004Z,12.29
2019-03-24T17:33:50.779Z,12.32
2019-03-24T17:36:22.601Z,12.23
2019-03-24T17:38:54.649Z,12.14
2019-03-24T17:41:26.742Z,12.15
2019-03-24T17:44:03.349Z,12.06
2019-03-24T17:46:32.433Z,12.00
2019-03-24T17:49:03.899Z,11.94
2019-03-24T17:51:35.264Z,11.98
2019-03-24T17:54:06.685Z,11.92
2019-03-24T17:56:38.149Z,11.71
2019-03-24T17:59:09.742Z,11.53
2019-03-24T18:01:41.070Z,11.26
2019-03-24T18:04:12.379Z,11.05
2019-03-24T18:06:43.691Z,10.85
2019-03-24T18:09:15.509Z,10.66
2019-03-24T18:11:47.063Z,10.44
2019-03-24T18:14:18.366Z,10.39
2019-03-24T18:16:50.202Z,10.21
2019-03-24T18:19:21.791Z,10.15
2019-03-24T18:21:53.116Z,10.03
2019-03-24T18:24:24.882Z,9.88
2019-03-24T18:26:56.211Z,9.76
2019-03-24T18:29:28.027Z,9.70
2019-03-24T18:31:59.703Z,9.53
2019-03-24T18:34:31.218Z,9.42
2019-03-24T18:37:03.423Z,9.44
2019-03-24T18:39:36.088Z,9.28
2019-03-24T18:42:07.839Z,9.19
2019-03-24T18:44:39.470Z,9.06
2019-03-24T18:47:11.091Z,8.99
2019-03-24T18:49:42.539Z,8.90
2019-03-24T18:52:22.311Z,8.80
2019-03-24T18:54:47.437Z,8.69
2019-03-24T18:57:19.306Z,8.73
2019-03-24T18:59:50.707Z,8.65
2019-03-24T19:02:22.936Z,8.52
2019-03-24T19:04:54.603Z,8.46
2019-03-24T19:07:26.012Z,8.37
2019-03-24T19:09:58.122Z,8.22
2019-03-24T19:12:29.576Z,8.10
2019-03-24T19:15:00.990Z,8.08
2019-03-24T19:17:32.780Z,7.94
2019-03-24T19:20:04.978Z,7.89
2019-03-24T19:22:37.671Z,7.78
2019-03-24T19:25:09.331Z,7.72
2019-03-24T19:27:40.872Z,7.67
2019-03-24T19:30:12.913Z,7.50
2019-03-24T19:32:44.350Z,7.42
2019-03-24T19:35:17.024Z,7.35
2019-03-24T19:37:48.330Z,7.25
2019-03-24T19:40:27.475Z,7.19
2019-03-24T19:42:59.118Z,7.13
2019-03-24T19:45:30.541Z,7.08
2019-03-24T19:48:01.997Z,7.00
2019-03-24T19:50:33.595Z,6.95
2019-03-24T19:53:05.363Z,6.97
2019-03-24T19:55:36.867Z,6.98
2019-03-24T19:58:08.329Z,6.97
2019-03-24T20:00:39.951Z,6.90
2019-03-24T20:03:11.415Z,6.86
2019-03-24T20:05:43.040Z,6.83
2019-03-24T20:08:14.483Z,6.82
2019-03-24T20:10:45.854Z,6.83
2019-03-24T20:13:17.448Z,6.88
2019-03-24T20:15:49.020Z,6.82
2019-03-24T20:18:20.315Z,6.85
2019-03-24T20:20:52.237Z,6.84
2019-03-24T20:23:23.812Z,6.81
2019-03-24T20:25:55.163Z,6.73
2019-03-24T20:28:26.879Z,6.66
2019-03-24T20:30:58.334Z,6.69
2019-03-24T20:33:32.449Z,6.63
2019-03-24T20:36:03.323Z,6.55
2019-03-24T20:38:34.936Z,6.50
2019-03-24T20:41:06.795Z,6.51
2019-03-24T20:43:38.103Z,6.52
2019-03-24T20:46:09.706Z,6.45
2019-03-24T20:48:41.239Z,6.46
2019-03-24T20:51:12.603Z,6.44
2019-03-24T20:53:43.914Z,6.43
2019-03-24T20:56:15.222Z,6.41
2019-03-24T20:58:46.995Z,6.35
2019-03-24T21:01:18.896Z,6.29
2019-03-24T21:03:50.197Z,6.21
2019-03-24T21:06:21.477Z,6.14
2019-03-24T21:08:53.070Z,6.08
2019-03-24T21:11:26.206Z,6.01
2019-03-24T21:13:57.585Z,6.03
2019-03-24T21:16:29.108Z,6.03
2019-03-24T21:19:00.717Z,5.96
2019-03-24T21:21:32.005Z,5.84
2019-03-24T21:24:03.531Z,5.82
2019-03-24T21:26:35.060Z,5.76
2019-03-24T21:29:06.587Z,5.75
2019-03-24T21:31:38.254Z,5.75
2019-03-24T21:34:09.786Z,5.66
2019-03-24T21:36:41.160Z,5.62
2019-03-24T21:39:12.538Z,5.51
2019-03-24T21:41:44.383Z,5.36
2019-03-24T21:44:15.927Z,5.31
2019-03-24T21:46:47.304Z,5.31
2019-03-24T21:49:18.836Z,5.17
2019-03-24T21:51:50.133Z,5.14
2019-03-24T21:54:21.441Z,5.10
2019-03-24T21:56:53.000Z,5.10
2019-03-24T21:59:24.815Z,4.95
2019-03-24T22:01:56.282Z,4.91
2019-03-24T22:04:28.055Z,4.93
2019-03-24T22:07:00.069Z,4.89
2019-03-24T22:09:31.619Z,4.87
2019-03-24T22:12:03.992Z,4.71
2019-03-24T22:14:35.436Z,4.62
2019-03-24T22:17:07.105Z,4.59
2019-03-24T22:19:38.823Z,4.43
2019-03-24T22:22:10.332Z,4.39
2019-03-24T22:24:41.644Z,4.36
2019-03-24T22:27:13.442Z,4.29
2019-03-24T22:29:44.977Z,4.19
2019-03-24T22:32:16.487Z,4.24
2019-03-24T22:34:48.027Z,4.17
2019-03-24T22:37:19.543Z,4.16
2019-03-24T22:39:51.095Z,4.06
2019-03-24T22:42:22.380Z,3.91
2019-03-24T22:44:53.674Z,3.85
2019-03-24T22:47:24.986Z,3.80
2019-03-24T22:49:56.287Z,3.78
2019-03-24T22:52:27.915Z,3.73
2019-03-24T22:54:59.702Z,3.63
2019-03-24T22:57:32.694Z,3.61
2019-03-24T23:00:04.820Z,3.60
2019-03-24T23:02:37.218Z,3.56
2019-03-24T23:05:08.636Z,3.69
2019-03-24T23:07:39.935Z,3.64
2019-03-24T23:10:11.675Z,3.57
2019-03-24T23:12:43.266Z,3.51
2019-03-24T23:15:14.639Z,3.51
2019-03-24T23:17:46.012Z,3.49
2019-03-24T23:20:36.268Z,3.34
2019-03-24T23:23:07.638Z,3.30
2019-03-24T23:25:39.111Z,3.23
2019-03-24T23:28:10.475Z,3.19
2019-03-24T23:30:42.088Z,3.18
2019-03-24T23:33:13.446Z,3.09
2019-03-24T23:35:45.097Z,3.04
2019-03-24T23:38:16.616Z,3.17
2019-03-24T23:40:48.259Z,3.15
2019-03-24T23:43:19.807Z,3.13
2019-03-24T23:45:51.275Z,3.11
2019-03-24T23:48:23.716Z,3.05
2019-03-24T23:50:55.333Z,2.91
2019-03-24T23:53:26.880Z,2.85
2019-03-24T23:55:58.184Z,2.86
2019-03-24T23:58:40.379Z,2.87
